sensor_id;sensor_type;location;lat;lon;timestamp;pressure;altitude;pressure_sealevel;temperature;humidity
12203;BME280;6164;42.178;24.622;2022-08-11T00:01:12;99527.75;;;21.53;77.66
12203;BME280;6164;42.178;24.622;2022-08-11T00:03:46;99538.13;;;21.33;78.78
12203;BME280;6164;42.178;24.622;2022-08-11T00:06:13;99533.06;;;21.37;79.49
12203;BME280;6164;42.178;24.622;2022-08-11T00:08:40;99530.63;;;21.35;79.72
12203;BME280;6164;42.178;24.622;2022-08-11T00:11:08;99527.59;;;21.32;80.13
12203;BME280;6164;42.178;24.622;2022-08-11T00:13:38;99530.66;;;21.24;81.57
12203;BME280;6164;42.178;24.622;2022-08-11T00:16:09;99533.09;;;21.25;81.96
12203;BME280;6164;42.178;24.622;2022-08-11T00:18:39;99528.22;;;21.22;82.56
12203;BME280;6164;42.178;24.622;2022-08-11T00:21:06;99533.56;;;21.22;82.94
12203;BME280;6164;42.178;24.622;2022-08-11T00:23:33;99526.25;;;21.18;83.82
12203;BME280;6164;42.178;24.622;2022-08-11T00:26:05;99527.75;;;21.14;84.55
12203;BME280;6164;42.178;24.622;2022-08-11T00:28:33;99535.03;;;21.13;84.66
12203;BME280;6164;42.178;24.622;2022-08-11T00:31:03;99533.25;;;21.07;85.42
12203;BME280;6164;42.178;24.622;2022-08-11T00:33:31;99534.91;;;21.08;86.24
12203;BME280;6164;42.178;24.622;2022-08-11T00:36:00;99536.31;;;20.99;86.85
12203;BME280;6164;42.178;24.622;2022-08-11T00:38:29;99534.47;;;21.00;87.44
12203;BME280;6164;42.178;24.622;2022-08-11T00:40:58;99536.19;;;20.94;88.21
12203;BME280;6164;42.178;24.622;2022-08-11T00:43:34;99540.41;;;20.90;89.25
12203;BME280;6164;42.178;24.622;2022-08-11T00:46:08;99540.88;;;20.87;89.30
12203;BME280;6164;42.178;24.622;2022-08-11T00:48:39;99535.16;;;20.83;89.84
12203;BME280;6164;42.178;24.622;2022-08-11T00:51:12;99546.81;;;20.89;89.81
12203;BME280;6164;42.178;24.622;2022-08-11T00:53:45;99544.47;;;20.92;89.67
12203;BME280;6164;42.178;24.622;2022-08-11T01:01:47;99545.28;;;20.93;89.50
12203;BME280;6164;42.178;24.622;2022-08-11T01:04:22;99538.06;;;20.93;88.99
12203;BME280;6164;42.178;24.622;2022-08-11T01:09:57;99540.66;;;21.00;88.22
12203;BME280;6164;42.178;24.622;2022-08-11T01:12:29;99537.00;;;21.06;87.78
12203;BME280;6164;42.178;24.622;2022-08-11T01:20:38;99535.16;;;21.07;86.39
12203;BME280;6164;42.178;24.622;2022-08-11T01:23:31;99527.69;;;21.09;86.10
12203;BME280;6164;42.178;24.622;2022-08-11T01:29:23;99526.41;;;21.00;86.41
12203;BME280;6164;42.178;24.622;2022-08-11T01:32:06;99530.47;;;20.90;86.99
12203;BME280;6164;42.178;24.622;2022-08-11T01:37:31;99520.69;;;20.84;87.00
12203;BME280;6164;42.178;24.622;2022-08-11T01:40:13;99527.34;;;20.82;87.59
12203;BME280;6164;42.178;24.622;2022-08-11T01:43:01;99520.44;;;20.86;87.38
12203;BME280;6164;42.178;24.622;2022-08-11T01:45:54;99524.66;;;20.82;87.70
12203;BME280;6164;42.178;24.622;2022-08-11T01:48:27;99512.06;;;20.82;87.74
12203;BME280;6164;42.178;24.622;2022-08-11T01:51:03;99510.78;;;20.85;87.76
12203;BME280;6164;42.178;24.622;2022-08-11T01:53:36;99516.38;;;20.83;88.27
12203;BME280;6164;42.178;24.622;2022-08-11T01:56:12;99509.13;;;20.84;87.70
12203;BME280;6164;42.178;24.622;2022-08-11T01:58:42;99505.75;;;20.88;87.25
12203;BME280;6164;42.178;24.622;2022-08-11T02:01:14;99507.50;;;20.83;87.35
12203;BME280;6164;42.178;24.622;2022-08-11T02:03:50;99510.88;;;20.90;86.79
12203;BME280;6164;42.178;24.622;2022-08-11T02:06:21;99506.44;;;20.84;86.51
12203;BME280;6164;42.178;24.622;2022-08-11T02:09:14;99501.66;;;20.86;86.63
12203;BME280;6164;42.178;24.622;2022-08-11T02:11:44;99501.78;;;20.91;86.32
12203;BME280;6164;42.178;24.622;2022-08-11T02:14:12;99507.72;;;20.93;86.13
12203;BME280;6164;42.178;24.622;2022-08-11T02:16:47;99507.13;;;20.91;86.35
12203;BME280;6164;42.178;24.622;2022-08-11T02:19:23;99506.25;;;20.74;86.91
12203;BME280;6164;42.178;24.622;2022-08-11T02:22:10;99502.75;;;20.73;86.66
12203;BME280;6164;42.178;24.622;2022-08-11T02:24:59;99506.25;;;20.74;86.11
12203;BME280;6164;42.178;24.622;2022-08-11T02:27:31;99500.75;;;20.80;85.84
12203;BME280;6164;42.178;24.622;2022-08-11T02:30:02;99494.34;;;20.81;85.01
12203;BME280;6164;42.178;24.622;2022-08-11T02:32:33;99492.38;;;20.77;84.97
12203;BME280;6164;42.178;24.622;2022-08-11T02:35:18;99496.78;;;20.83;84.66
12203;BME280;6164;42.178;24.622;2022-08-11T02:37:49;99492.00;;;20.85;84.69
12203;BME280;6164;42.178;24.622;2022-08-11T02:40:29;99497.47;;;20.90;83.97
12203;BME280;6164;42.178;24.622;2022-08-11T02:43:07;99498.19;;;20.97;82.93
12203;BME280;6164;42.178;24.622;2022-08-11T02:45:38;99504.13;;;20.99;82.47
12203;BME280;6164;42.178;24.622;2022-08-11T02:48:12;99508.06;;;20.97;82.44
12203;BME280;6164;42.178;24.622;2022-08-11T02:51:03;99512.84;;;20.94;82.81
12203;BME280;6164;42.178;24.622;2022-08-11T02:53:35;99499.81;;;20.86;83.03
12203;BME280;6164;42.178;24.622;2022-08-11T02:56:07;99503.41;;;20.92;83.01
12203;BME280;6164;42.178;24.622;2022-08-11T02:58:40;99506.09;;;20.92;83.06
12203;BME280;6164;42.178;24.622;2022-08-11T03:01:37;99501.44;;;20.99;82.11
12203;BME280;6164;42.178;24.622;2022-08-11T03:04:07;99499.44;;;21.06;81.25
12203;BME280;6164;42.178;24.622;2022-08-11T03:06:37;99514.34;;;21.14;81.13
12203;BME280;6164;42.178;24.622;2022-08-11T03:09:05;99510.13;;;21.18;80.04
12203;BME280;6164;42.178;24.622;2022-08-11T03:11:55;99512.81;;;21.18;80.25
12203;BME280;6164;42.178;24.622;2022-08-11T03:14:46;99509.41;;;21.22;79.73
12203;BME280;6164;42.178;24.622;2022-08-11T03:17:32;99505.44;;;21.25;79.93
12203;BME280;6164;42.178;24.622;2022-08-11T03:22:50;99507.41;;;21.29;79.08
12203;BME280;6164;42.178;24.622;2022-08-11T03:25:21;99508.00;;;21.31;78.67
12203;BME280;6164;42.178;24.622;2022-08-11T03:27:59;99510.09;;;21.29;78.22
12203;BME280;6164;42.178;24.622;2022-08-11T03:30:29;99507.66;;;21.28;77.51
12203;BME280;6164;42.178;24.622;2022-08-11T03:33:04;99500.09;;;21.25;77.73
12203;BME280;6164;42.178;24.622;2022-08-11T03:35:53;99503.41;;;21.32;77.78
12203;BME280;6164;42.178;24.622;2022-08-11T03:38:23;99508.13;;;21.25;77.55
12203;BME280;6164;42.178;24.622;2022-08-11T03:40:58;99503.56;;;21.25;77.20
12203;BME280;6164;42.178;24.622;2022-08-11T03:44:01;99512.59;;;21.19;76.94
12203;BME280;6164;42.178;24.622;2022-08-11T03:46:35;99509.31;;;21.17;77.15
12203;BME280;6164;42.178;24.622;2022-08-11T03:49:14;99508.19;;;21.13;77.00
12203;BME280;6164;42.178;24.622;2022-08-11T03:51:47;99505.59;;;21.18;77.13
12203;BME280;6164;42.178;24.622;2022-08-11T03:54:19;99518.44;;;21.16;77.12
12203;BME280;6164;42.178;24.622;2022-08-11T03:59:51;99513.75;;;21.23;77.01
12203;BME280;6164;42.178;24.622;2022-08-11T04:02:32;99515.03;;;21.21;76.96
12203;BME280;6164;42.178;24.622;2022-08-11T04:08:03;99517.22;;;21.24;77.17
12203;BME280;6164;42.178;24.622;2022-08-11T04:10:47;99521.81;;;21.23;77.72
12203;BME280;6164;42.178;24.622;2022-08-11T04:13:39;99518.53;;;21.21;78.29
12203;BME280;6164;42.178;24.622;2022-08-11T04:16:23;99521.13;;;21.16;78.89
12203;BME280;6164;42.178;24.622;2022-08-11T04:19:09;99524.97;;;21.20;79.64
12203;BME280;6164;42.178;24.622;2022-08-11T04:30:08;99534.22;;;21.41;79.67
12203;BME280;6164;42.178;24.622;2022-08-11T04:33:00;99528.38;;;21.44;80.23
12203;BME280;6164;42.178;24.622;2022-08-11T04:35:31;99529.78;;;21.46;80.63
12203;BME280;6164;42.178;24.622;2022-08-11T04:38:14;99529.63;;;21.53;80.66
12203;BME280;6164;42.178;24.622;2022-08-11T04:52:22;99529.72;;;21.86;80.17
12203;BME280;6164;42.178;24.622;2022-08-11T04:55:26;99519.13;;;21.96;78.78
12203;BME280;6164;42.178;24.622;2022-08-11T04:58:16;99529.81;;;22.07;78.47
12203;BME280;6164;42.178;24.622;2022-08-11T05:01:05;99515.91;;;22.10;78.80
12203;BME280;6164;42.178;24.622;2022-08-11T05:07:11;99518.34;;;22.29;79.33
12203;BME280;6164;42.178;24.622;2022-08-11T05:10:01;99515.72;;;22.34;77.69
12203;BME280;6164;42.178;24.622;2022-08-11T05:12:31;99521.47;;;22.42;76.89
12203;BME280;6164;42.178;24.622;2022-08-11T05:15:01;99518.94;;;22.52;76.71
12203;BME280;6164;42.178;24.622;2022-08-11T05:17:52;99521.03;;;22.62;76.30
12203;BME280;6164;42.178;24.622;2022-08-11T05:20:39;99531.69;;;22.73;75.31
12203;BME280;6164;42.178;24.622;2022-08-11T05:23:26;99528.56;;;22.81;74.31
12203;BME280;6164;42.178;24.622;2022-08-11T05:26:12;99533.25;;;22.91;73.49
12203;BME280;6164;42.178;24.622;2022-08-11T05:28:59;99533.66;;;22.99;73.07
12203;BME280;6164;42.178;24.622;2022-08-11T05:31:45;99530.63;;;22.96;72.94
12203;BME280;6164;42.178;24.622;2022-08-11T05:34:32;99535.91;;;23.07;71.19
12203;BME280;6164;42.178;24.622;2022-08-11T05:37:22;99534.09;;;23.13;70.56
12203;BME280;6164;42.178;24.622;2022-08-11T05:39:49;99534.63;;;23.15;69.88
12203;BME280;6164;42.178;24.622;2022-08-11T05:42:37;99534.63;;;23.15;70.13
12203;BME280;6164;42.178;24.622;2022-08-11T05:45:22;99525.75;;;23.14;70.66
12203;BME280;6164;42.178;24.622;2022-08-11T05:48:06;99531.16;;;23.14;71.30
12203;BME280;6164;42.178;24.622;2022-08-11T05:50:54;99532.63;;;23.05;70.92
12203;BME280;6164;42.178;24.622;2022-08-11T05:53:42;99535.84;;;23.02;71.42
12203;BME280;6164;42.178;24.622;2022-08-11T05:56:27;99533.00;;;23.14;71.72
12203;BME280;6164;42.178;24.622;2022-08-11T05:58:55;99527.94;;;23.17;72.04
12203;BME280;6164;42.178;24.622;2022-08-11T06:01:24;99530.69;;;23.22;71.63
12203;BME280;6164;42.178;24.622;2022-08-11T06:03:52;99531.03;;;23.26;71.28
12203;BME280;6164;42.178;24.622;2022-08-11T06:06:36;99533.81;;;23.31;71.11
12203;BME280;6164;42.178;24.622;2022-08-11T06:09:05;99528.69;;;23.34;71.33
12203;BME280;6164;42.178;24.622;2022-08-11T06:11:36;99529.53;;;23.35;70.10
12203;BME280;6164;42.178;24.622;2022-08-11T06:14:05;99533.66;;;23.42;70.74
12203;BME280;6164;42.178;24.622;2022-08-11T06:16:32;99530.78;;;23.49;69.93
12203;BME280;6164;42.178;24.622;2022-08-11T06:18:59;99532.19;;;23.57;70.67
12203;BME280;6164;42.178;24.622;2022-08-11T06:21:26;99532.03;;;23.68;69.40
12203;BME280;6164;42.178;24.622;2022-08-11T06:23:53;99536.47;;;23.79;69.07
12203;BME280;6164;42.178;24.622;2022-08-11T06:26:20;99519.84;;;23.92;68.66
12203;BME280;6164;42.178;24.622;2022-08-11T06:28:47;99514.88;;;24.06;68.10
12203;BME280;6164;42.178;24.622;2022-08-11T06:31:18;99520.88;;;24.13;66.45
12203;BME280;6164;42.178;24.622;2022-08-11T06:33:52;99518.53;;;24.21;66.51
12203;BME280;6164;42.178;24.622;2022-08-11T06:36:21;99522.66;;;24.34;65.87
12203;BME280;6164;42.178;24.622;2022-08-11T06:38:52;99515.34;;;24.29;65.79
12203;BME280;6164;42.178;24.622;2022-08-11T06:41:29;99517.84;;;24.36;65.14
12203;BME280;6164;42.178;24.622;2022-08-11T06:44:02;99517.97;;;24.56;64.93
12203;BME280;6164;42.178;24.622;2022-08-11T06:46:34;99519.16;;;24.70;64.28
12203;BME280;6164;42.178;24.622;2022-08-11T06:49:03;99522.50;;;24.87;64.07
12203;BME280;6164;42.178;24.622;2022-08-11T06:51:30;99519.28;;;24.95;63.83
12203;BME280;6164;42.178;24.622;2022-08-11T06:53:59;99520.16;;;25.06;63.54
12203;BME280;6164;42.178;24.622;2022-08-11T06:56:27;99522.13;;;25.25;63.59
12203;BME280;6164;42.178;24.622;2022-08-11T06:59:12;99527.28;;;25.32;61.53
12203;BME280;6164;42.178;24.622;2022-08-11T07:02:02;99527.59;;;25.40;61.06
12203;BME280;6164;42.178;24.622;2022-08-11T07:04:31;99521.16;;;25.51;61.45
12203;BME280;6164;42.178;24.622;2022-08-11T07:07:05;99526.31;;;25.58;59.87
12203;BME280;6164;42.178;24.622;2022-08-11T07:10:02;99522.53;;;25.69;59.51
12203;BME280;6164;42.178;24.622;2022-08-11T07:12:54;99525.28;;;25.89;58.30
12203;BME280;6164;42.178;24.622;2022-08-11T07:15:39;99530.97;;;25.98;57.58
12203;BME280;6164;42.178;24.622;2022-08-11T07:18:16;99530.44;;;26.06;59.21
12203;BME280;6164;42.178;24.622;2022-08-11T07:21:07;99537.47;;;26.07;57.66
12203;BME280;6164;42.178;24.622;2022-08-11T07:23:53;99529.91;;;26.14;58.54
12203;BME280;6164;42.178;24.622;2022-08-11T07:26:38;99530.72;;;26.19;58.70
12203;BME280;6164;42.178;24.622;2022-08-11T07:29:23;99535.88;;;26.06;58.68
12203;BME280;6164;42.178;24.622;2022-08-11T07:31:52;99531.53;;;26.15;59.47
12203;BME280;6164;42.178;24.622;2022-08-11T07:34:21;99528.03;;;26.24;58.46
12203;BME280;6164;42.178;24.622;2022-08-11T07:36:50;99527.47;;;26.42;58.39
12203;BME280;6164;42.178;24.622;2022-08-11T07:39:18;99529.63;;;26.55;57.68
12203;BME280;6164;42.178;24.622;2022-08-11T07:41:46;99535.59;;;26.42;56.89
12203;BME280;6164;42.178;24.622;2022-08-11T07:44:13;99531.25;;;26.41;56.77
12203;BME280;6164;42.178;24.622;2022-08-11T07:46:41;99525.81;;;26.36;56.92
12203;BME280;6164;42.178;24.622;2022-08-11T07:49:27;99521.50;;;26.45;56.67
12203;BME280;6164;42.178;24.622;2022-08-11T07:52:12;99532.59;;;26.49;56.18
12203;BME280;6164;42.178;24.622;2022-08-11T07:54:58;99530.13;;;26.62;55.74
12203;BME280;6164;42.178;24.622;2022-08-11T07:57:25;99524.97;;;26.76;56.43
12203;BME280;6164;42.178;24.622;2022-08-11T08:00:10;99517.66;;;26.81;55.75
12203;BME280;6164;42.178;24.622;2022-08-11T08:02:54;99523.31;;;27.00;56.37
12203;BME280;6164;42.178;24.622;2022-08-11T08:05:39;99522.13;;;27.21;55.37
12203;BME280;6164;42.178;24.622;2022-08-11T08:08:27;99520.19;;;27.21;53.46
12203;BME280;6164;42.178;24.622;2022-08-11T08:11:11;99520.19;;;27.27;52.79
12203;BME280;6164;42.178;24.622;2022-08-11T08:13:55;99525.63;;;27.21;52.31
12203;BME280;6164;42.178;24.622;2022-08-11T08:16:39;99520.16;;;27.37;51.13
12203;BME280;6164;42.178;24.622;2022-08-11T08:19:24;99518.44;;;27.56;51.03
12203;BME280;6164;42.178;24.622;2022-08-11T08:21:52;99513.03;;;27.56;50.62
12203;BME280;6164;42.178;24.622;2022-08-11T08:24:22;99513.56;;;27.58;50.68
12203;BME280;6164;42.178;24.622;2022-08-11T08:26:49;99512.06;;;27.75;51.89
12203;BME280;6164;42.178;24.622;2022-08-11T08:29:25;99515.84;;;27.79;48.98
12203;BME280;6164;42.178;24.622;2022-08-11T08:32:10;99511.19;;;27.85;48.45
12203;BME280;6164;42.178;24.622;2022-08-11T08:34:37;99514.09;;;27.98;49.09
12203;BME280;6164;42.178;24.622;2022-08-11T08:37:06;99516.88;;;27.93;47.89
12203;BME280;6164;42.178;24.622;2022-08-11T08:39:33;99515.75;;;27.94;47.91
12203;BME280;6164;42.178;24.622;2022-08-11T08:42:03;99513.28;;;27.98;48.06
12203;BME280;6164;42.178;24.622;2022-08-11T08:44:32;99508.31;;;28.10;47.25
12203;BME280;6164;42.178;24.622;2022-08-11T08:46:59;99498.94;;;28.26;48.10
12203;BME280;6164;42.178;24.622;2022-08-11T08:49:30;99505.84;;;28.42;46.95
12203;BME280;6164;42.178;24.622;2022-08-11T08:52:00;99512.78;;;28.58;46.20
12203;BME280;6164;42.178;24.622;2022-08-11T08:54:29;99508.81;;;28.74;45.14
12203;BME280;6164;42.178;24.622;2022-08-11T08:56:59;99510.25;;;28.90;44.43
12203;BME280;6164;42.178;24.622;2022-08-11T08:59:29;99509.59;;;28.98;43.61
12203;BME280;6164;42.178;24.622;2022-08-11T09:01:57;99499.09;;;29.15;44.45
12203;BME280;6164;42.178;24.622;2022-08-11T09:04:24;99498.31;;;29.33;43.79
12203;BME280;6164;42.178;24.622;2022-08-11T09:06:51;99501.25;;;29.37;43.26
12203;BME280;6164;42.178;24.622;2022-08-11T09:09:18;99513.97;;;29.41;41.30
12203;BME280;6164;42.178;24.622;2022-08-11T09:11:47;99490.09;;;29.57;42.80
12203;BME280;6164;42.178;24.622;2022-08-11T09:14:18;99478.72;;;29.74;42.75
12203;BME280;6164;42.178;24.622;2022-08-11T09:16:45;99486.63;;;29.89;42.78
12203;BME280;6164;42.178;24.622;2022-08-11T09:19:13;99488.19;;;29.95;41.36
12203;BME280;6164;42.178;24.622;2022-08-11T09:21:42;99485.47;;;29.95;41.74
12203;BME280;6164;42.178;24.622;2022-08-11T09:24:09;99493.63;;;29.95;40.65
12203;BME280;6164;42.178;24.622;2022-08-11T09:26:54;99484.16;;;29.74;41.08
12203;BME280;6164;42.178;24.622;2022-08-11T09:29:25;99480.25;;;29.80;41.44
12203;BME280;6164;42.178;24.622;2022-08-11T09:31:52;99491.97;;;29.80;40.90
12203;BME280;6164;42.178;24.622;2022-08-11T09:34:22;99487.59;;;29.42;40.40
12203;BME280;6164;42.178;24.622;2022-08-11T09:36:50;99479.22;;;29.57;40.14
12203;BME280;6164;42.178;24.622;2022-08-11T09:39:35;99482.38;;;29.83;40.71
12203;BME280;6164;42.178;24.622;2022-08-11T09:42:21;99472.25;;;30.02;40.60
12203;BME280;6164;42.178;24.622;2022-08-11T09:45:09;99458.75;;;30.29;41.13
12203;BME280;6164;42.178;24.622;2022-08-11T09:47:35;99457.22;;;30.36;41.62
12203;BME280;6164;42.178;24.622;2022-08-11T09:50:04;99466.97;;;30.56;40.67
12203;BME280;6164;42.178;24.622;2022-08-11T09:52:33;99473.41;;;30.60;39.70
12203;BME280;6164;42.178;24.622;2022-08-11T09:55:04;99490.56;;;30.60;37.12
12203;BME280;6164;42.178;24.622;2022-08-11T09:57:37;99483.50;;;30.73;38.33
12203;BME280;6164;42.178;24.622;2022-08-11T10:00:24;99490.25;;;30.48;36.99
12203;BME280;6164;42.178;24.622;2022-08-11T10:02:53;99478.88;;;30.60;37.86
12203;BME280;6164;42.178;24.622;2022-08-11T10:05:23;99483.00;;;30.57;37.38
12203;BME280;6164;42.178;24.622;2022-08-11T10:08:11;99484.28;;;30.33;37.10
12203;BME280;6164;42.178;24.622;2022-08-11T10:10:38;99478.53;;;29.84;38.11
12203;BME280;6164;42.178;24.622;2022-08-11T10:13:07;99469.72;;;29.92;38.40
12203;BME280;6164;42.178;24.622;2022-08-11T10:15:34;99467.19;;;29.95;38.26
12203;BME280;6164;42.178;24.622;2022-08-11T10:18:03;99457.91;;;30.15;38.64
12203;BME280;6164;42.178;24.622;2022-08-11T10:20:49;99473.78;;;30.26;37.61
12203;BME280;6164;42.178;24.622;2022-08-11T10:23:15;99450.88;;;30.27;38.36
12203;BME280;6164;42.178;24.622;2022-08-11T10:26:03;99477.97;;;30.51;37.11
12203;BME280;6164;42.178;24.622;2022-08-11T10:28:50;99465.69;;;30.80;37.02
12203;BME280;6164;42.178;24.622;2022-08-11T10:31:18;99475.78;;;30.80;36.58
12203;BME280;6164;42.178;24.622;2022-08-11T10:34:02;99453.72;;;30.76;37.64
12203;BME280;6164;42.178;24.622;2022-08-11T10:36:33;99465.66;;;30.94;36.32
12203;BME280;6164;42.178;24.622;2022-08-11T10:39:06;99474.53;;;31.13;35.62
12203;BME280;6164;42.178;24.622;2022-08-11T10:41:32;99486.53;;;31.26;34.90
12203;BME280;6164;42.178;24.622;2022-08-11T10:44:18;99480.25;;;31.39;35.77
12203;BME280;6164;42.178;24.622;2022-08-11T10:46:45;99485.56;;;31.57;34.84
12203;BME280;6164;42.178;24.622;2022-08-11T10:49:30;99459.72;;;31.77;35.40
12203;BME280;6164;42.178;24.622;2022-08-11T10:51:57;99472.91;;;31.97;34.80
12203;BME280;6164;42.178;24.622;2022-08-11T10:54:42;99449.97;;;32.29;35.55
12203;BME280;6164;42.178;24.622;2022-08-11T10:57:29;99464.00;;;32.66;33.96
12203;BME280;6164;42.178;24.622;2022-08-11T11:00:15;99499.31;;;32.93;32.51
12203;BME280;6164;42.178;24.622;2022-08-11T11:02:42;99502.69;;;32.90;32.54
12203;BME280;6164;42.178;24.622;2022-08-11T11:05:11;99502.56;;;32.95;32.91
12203;BME280;6164;42.178;24.622;2022-08-11T11:07:42;99494.38;;;33.04;33.12
12203;BME280;6164;42.178;24.622;2022-08-11T11:10:12;99488.91;;;33.04;32.43
12203;BME280;6164;42.178;24.622;2022-08-11T11:12:41;99459.28;;;32.97;34.14
12203;BME280;6164;42.178;24.622;2022-08-11T11:15:28;99472.63;;;32.90;33.30
12203;BME280;6164;42.178;24.622;2022-08-11T11:18:14;99471.41;;;32.74;33.26
12203;BME280;6164;42.178;24.622;2022-08-11T11:20:44;99464.44;;;32.60;33.02
12203;BME280;6164;42.178;24.622;2022-08-11T11:23:13;99484.72;;;32.37;32.89
12203;BME280;6164;42.178;24.622;2022-08-11T11:25:52;99476.28;;;32.47;32.81
12203;BME280;6164;42.178;24.622;2022-08-11T11:28:34;99472.09;;;32.80;32.75
12203;BME280;6164;42.178;24.622;2022-08-11T11:31:10;99458.06;;;32.73;32.96
12203;BME280;6164;42.178;24.622;2022-08-11T11:33:47;99466.31;;;32.42;32.92
12203;BME280;6164;42.178;24.622;2022-08-11T11:36:18;99442.50;;;32.43;33.30
12203;BME280;6164;42.178;24.622;2022-08-11T11:38:51;99409.81;;;32.68;34.90
12203;BME280;6164;42.178;24.622;2022-08-11T11:41:21;99430.19;;;32.93;33.18
12203;BME280;6164;42.178;24.622;2022-08-11T11:43:50;99461.41;;;33.09;31.72
12203;BME280;6164;42.178;24.622;2022-08-11T11:46:19;99475.59;;;33.28;31.88
12203;BME280;6164;42.178;24.622;2022-08-11T11:48:45;99484.63;;;33.37;31.31
12203;BME280;6164;42.178;24.622;2022-08-11T11:51:12;99498.47;;;33.32;30.83
12203;BME280;6164;42.178;24.622;2022-08-11T11:53:40;99502.00;;;33.24;31.00
12203;BME280;6164;42.178;24.622;2022-08-11T11:56:09;99495.75;;;33.41;30.93
12203;BME280;6164;42.178;24.622;2022-08-11T11:58:37;99488.97;;;33.38;30.55
12203;BME280;6164;42.178;24.622;2022-08-11T12:01:22;99501.75;;;33.60;30.24
12203;BME280;6164;42.178;24.622;2022-08-11T12:03:50;99492.72;;;33.76;30.26
12203;BME280;6164;42.178;24.622;2022-08-11T12:06:19;99481.47;;;34.03;30.81
12203;BME280;6164;42.178;24.622;2022-08-11T12:08:48;99470.59;;;34.24;30.44
12203;BME280;6164;42.178;24.622;2022-08-11T12:11:14;99502.22;;;34.30;29.54
12203;BME280;6164;42.178;24.622;2022-08-11T12:14:01;99501.56;;;34.24;30.19
12203;BME280;6164;42.178;24.622;2022-08-11T12:16:29;99503.53;;;33.90;30.25
12203;BME280;6164;42.178;24.622;2022-08-11T12:18:57;99503.69;;;33.68;30.03
12203;BME280;6164;42.178;24.622;2022-08-11T12:21:25;99495.31;;;33.73;30.01
12203;BME280;6164;42.178;24.622;2022-08-11T12:23:52;99468.28;;;33.97;30.95
12203;BME280;6164;42.178;24.622;2022-08-11T12:26:37;99512.38;;;33.87;29.24
12203;BME280;6164;42.178;24.622;2022-08-11T12:29:18;99524.63;;;33.72;28.78
12203;BME280;6164;42.178;24.622;2022-08-11T12:31:46;99524.47;;;33.60;29.42
12203;BME280;6164;42.178;24.622;2022-08-11T12:34:13;99524.28;;;33.48;29.27
12203;BME280;6164;42.178;24.622;2022-08-11T12:36:40;99488.69;;;33.48;30.61
12203;BME280;6164;42.178;24.622;2022-08-11T12:39:08;99466.81;;;33.65;31.17
12203;BME280;6164;42.178;24.622;2022-08-11T12:41:36;99525.59;;;33.76;28.81
12203;BME280;6164;42.178;24.622;2022-08-11T12:44:20;99519.50;;;34.13;29.01
12203;BME280;6164;42.178;24.622;2022-08-11T12:47:07;99495.44;;;34.44;30.12
12203;BME280;6164;42.178;24.622;2022-08-11T12:49:35;99462.06;;;34.72;31.29
12203;BME280;6164;42.178;24.622;2022-08-11T12:52:21;99488.28;;;34.98;29.39
12203;BME280;6164;42.178;24.622;2022-08-11T12:54:55;99516.94;;;35.09;28.20
12203;BME280;6164;42.178;24.622;2022-08-11T12:57:30;99504.50;;;35.41;28.99
12203;BME280;6164;42.178;24.622;2022-08-11T13:00:16;99522.47;;;35.59;27.80
12203;BME280;6164;42.178;24.622;2022-08-11T13:03:02;99536.28;;;35.13;28.51
12203;BME280;6164;42.178;24.622;2022-08-11T13:05:48;99535.06;;;34.55;28.56
12203;BME280;6164;42.178;24.622;2022-08-11T13:08:17;99494.47;;;34.40;30.16
12203;BME280;6164;42.178;24.622;2022-08-11T13:10:45;99499.31;;;34.18;29.69
12203;BME280;6164;42.178;24.622;2022-08-11T13:13:29;99497.09;;;33.94;29.14
12203;BME280;6164;42.178;24.622;2022-08-11T13:15:56;99504.03;;;33.92;28.76
12203;BME280;6164;42.178;24.622;2022-08-11T13:18:24;99505.78;;;33.79;29.12
12203;BME280;6164;42.178;24.622;2022-08-11T13:20:52;99496.13;;;33.73;29.18
12203;BME280;6164;42.178;24.622;2022-08-11T13:23:19;99502.56;;;33.69;29.34
12203;BME280;6164;42.178;24.622;2022-08-11T13:25:47;99492.91;;;33.54;29.46
12203;BME280;6164;42.178;24.622;2022-08-11T13:28:14;99488.66;;;33.39;29.37
12203;BME280;6164;42.178;24.622;2022-08-11T13:30:42;99471.09;;;33.32;30.58
12203;BME280;6164;42.178;24.622;2022-08-11T13:33:28;99467.22;;;33.33;29.75
12203;BME280;6164;42.178;24.622;2022-08-11T13:35:54;99460.63;;;33.25;30.41
12203;BME280;6164;42.178;24.622;2022-08-11T13:38:21;99423.28;;;33.12;31.54
12203;BME280;6164;42.178;24.622;2022-08-11T13:40:50;99390.78;;;33.11;31.92
12203;BME280;6164;42.178;24.622;2022-08-11T13:43:17;99377.88;;;33.11;32.36
12203;BME280;6164;42.178;24.622;2022-08-11T13:45:44;99358.13;;;33.06;32.84
12203;BME280;6164;42.178;24.622;2022-08-11T13:48:12;99330.59;;;33.02;33.42
12203;BME280;6164;42.178;24.622;2022-08-11T13:50:42;99349.56;;;32.90;32.64
12203;BME280;6164;42.178;24.622;2022-08-11T13:53:27;99294.88;;;32.99;33.69
12203;BME280;6164;42.178;24.622;2022-08-11T13:55:54;99300.97;;;33.30;33.33
12203;BME280;6164;42.178;24.622;2022-08-11T13:58:24;99350.84;;;33.53;31.65
12203;BME280;6164;42.178;24.622;2022-08-11T14:00:51;99373.41;;;33.58;30.76
12203;BME280;6164;42.178;24.622;2022-08-11T14:03:18;99363.69;;;33.78;31.22
12203;BME280;6164;42.178;24.622;2022-08-11T14:05:48;99373.00;;;34.02;30.72
12203;BME280;6164;42.178;24.622;2022-08-11T14:08:18;99362.31;;;34.18;31.36
12203;BME280;6164;42.178;24.622;2022-08-11T14:10:46;99375.78;;;33.94;30.99
12203;BME280;6164;42.178;24.622;2022-08-11T14:13:34;99373.06;;;33.94;31.09
12203;BME280;6164;42.178;24.622;2022-08-11T14:16:05;99374.31;;;33.88;31.14
12203;BME280;6164;42.178;24.622;2022-08-11T14:18:33;99393.03;;;33.77;31.00
12203;BME280;6164;42.178;24.622;2022-08-11T14:21:02;99390.78;;;33.71;30.63
12203;BME280;6164;42.178;24.622;2022-08-11T14:23:48;99381.63;;;33.58;30.95
12203;BME280;6164;42.178;24.622;2022-08-11T14:26:17;99373.91;;;33.43;31.62
12203;BME280;6164;42.178;24.622;2022-08-11T14:28:52;99358.41;;;33.30;31.89
12203;BME280;6164;42.178;24.622;2022-08-11T14:31:20;99354.72;;;33.17;31.80
12203;BME280;6164;42.178;24.622;2022-08-11T14:33:47;99349.91;;;33.14;32.01